Time;durP1;ratioP1;P1;durP2;ratioP2;P2;SDS_P1;SDS_P2;PMS_P1;PMS_P2;Temp;Humidity;BMP_temperature;BMP_pressure;BME280_temperature;BME280_humidity;BME280_pressure;Samples;Min_cycle;Max_cycle;Signal;HPM_P1;HPM_P2
2022/02/15 00:00:57;;;;;;;5.000001;3.3;;;;;;;5.06;51.95703;94479.5;;;;
2022/02/15 00:01:57;;;;;;;5.000001;3.3;;;;;;;5.06;51.95703;94479.5;;;;
2022/02/15 00:02:58;;;;;;;5.000001;3.3;;;;;;;5.06;51.95703;94479.5;;;;
2022/02/15 00:03:58;;;;;;;5.000001;3.3;;;;;;;5.06;51.95703;94479.5;;;;
2022/02/15 00:04:59;;;;;;;5.000001;3.3;;;;;;;5.06;51.95703;94479.5;;;;
2022/02/15 00:05:59;;;;;;;5.000001;3.3;;;;;;;5.06;51.95703;94479.5;;;;
2022/02/15 00:07:00;;;;;;;5.000001;3.3;;;;;;;5.06;51.95703;94479.5;;;;
2022/02/15 00:08:01;;;;;;;5.000001;3.3;;;;;;;5.06;51.95703;94479.5;;;;
2022/02/15 00:09:02;;;;;;;5.650001;3.85;;;;;;;5.01;52.27051;94472.16;;;;
2022/02/15 00:10:03;;;;;;;5.650001;3.85;;;;;;;5.01;52.27051;94472.16;;;;
2022/02/15 00:11:05;;;;;;;5.650001;3.85;;;;;;;5.01;52.27051;94472.16;;;;
2022/02/15 00:12:05;;;;;;;5.650001;3.85;;;;;;;5.01;52.27051;94472.16;;;;
2022/02/15 00:13:07;;;;;;;5.650001;3.85;;;;;;;5.01;52.27051;94472.16;;;;
2022/02/15 00:14:08;;;;;;;5.650001;3.85;;;;;;;5.01;52.27051;94472.16;;;;
2022/02/15 00:15:08;;;;;;;5.650001;3.85;;;;;;;5.01;52.27051;94472.16;;;;
2022/02/15 00:16:10;;;;;;;5.650001;3.85;;;;;;;5.01;52.27051;94472.16;;;;
2022/02/15 00:17:11;;;;;;;5.650001;3.85;;;;;;;5.01;52.27051;94472.16;;;;
2022/02/15 00:18:11;;;;;;;5.650001;3.85;;;;;;;5.01;52.27051;94472.16;;;;
2022/02/15 00:19:12;;;;;;;5.650001;3.85;;;;;;;5.01;52.27051;94472.16;;;;
2022/02/15 00:20:13;;;;;;;6.75;3.6;;;;;;;5.04;52.47559;94476.23;;;;
2022/02/15 00:21:13;;;;;;;6.75;3.6;;;;;;;5.04;52.47559;94476.23;;;;
2022/02/15 00:22:14;;;;;;;6.75;3.6;;;;;;;5.04;52.47559;94476.23;;;;
2022/02/15 00:23:15;;;;;;;6.75;3.6;;;;;;;5.04;52.47559;94476.23;;;;
2022/02/15 00:24:15;;;;;;;6.75;3.6;;;;;;;5.04;52.47559;94476.23;;;;
2022/02/15 00:25:16;;;;;;;6.75;3.6;;;;;;;5.04;52.47559;94476.23;;;;
2022/02/15 00:26:17;;;;;;;6.75;3.6;;;;;;;5.04;52.47559;94476.23;;;;
2022/02/15 00:27:17;;;;;;;6.75;3.6;;;;;;;5.04;52.47559;94476.23;;;;
2022/02/15 00:28:18;;;;;;;6.75;3.6;;;;;;;5.04;52.47559;94476.23;;;;
2022/02/15 00:29:18;;;;;;;6.75;3.6;;;;;;;5.04;52.47559;94476.23;;;;
2022/02/15 00:30:19;;;;;;;6.650001;3.85;;;;;;;5.02;52.65527;94492.5;;;;
2022/02/15 00:31:20;;;;;;;6.650001;3.85;;;;;;;5.02;52.65527;94492.5;;;;
2022/02/15 00:32:21;;;;;;;6.650001;3.85;;;;;;;5.02;52.65527;94492.5;;;;
2022/02/15 00:33:21;;;;;;;6.650001;3.85;;;;;;;5.02;52.65527;94492.5;;;;
2022/02/15 00:34:22;;;;;;;6.650001;3.85;;;;;;;5.02;52.65527;94492.5;;;;
2022/02/15 00:35:22;;;;;;;6.650001;3.85;;;;;;;5.02;52.65527;94492.5;;;;
2022/02/15 00:36:23;;;;;;;6.650001;3.85;;;;;;;5.02;52.65527;94492.5;;;;
2022/02/15 00:37:24;;;;;;;6.650001;3.85;;;;;;;5.02;52.65527;94492.5;;;;
2022/02/15 00:38:25;;;;;;;6.650001;3.85;;;;;;;5.02;52.65527;94492.5;;;;
2022/02/15 00:39:26;;;;;;;6.650001;3.85;;;;;;;5.02;52.65527;94492.5;;;;
2022/02/15 00:40:26;;;;;;;6.650001;3.85;;;;;;;5.02;52.65527;94492.5;;;;
2022/02/15 00:41:27;;;;;;;6.349999;3.95;;;;;;;5.01;52.88672;94479.77;;;;
2022/02/15 00:42:27;;;;;;;6.349999;3.95;;;;;;;5.01;52.88672;94479.77;;;;
2022/02/15 00:43:27;;;;;;;6.349999;3.95;;;;;;;5.01;52.88672;94479.77;;;;
2022/02/15 00:44:31;;;;;;;6.349999;3.95;;;;;;;5.01;52.88672;94479.77;;;;
2022/02/15 00:45:31;;;;;;;6.349999;3.95;;;;;;;5.01;52.88672;94479.77;;;;
2022/02/15 00:46:32;;;;;;;6.349999;3.95;;;;;;;5.01;52.88672;94479.77;;;;
2022/02/15 00:47:33;;;;;;;6.349999;3.95;;;;;;;5.01;52.88672;94479.77;;;;
2022/02/15 00:48:34;;;;;;;6.349999;3.95;;;;;;;5.01;52.88672;94479.77;;;;
2022/02/15 00:49:34;;;;;;;6.349999;3.95;;;;;;;5.01;52.88672;94479.77;;;;
2022/02/15 00:50:35;;;;;;;6.349999;3.95;;;;;;;5.01;52.88672;94479.77;;;;
2022/02/15 00:51:35;;;;;;;5.799999;3.65;;;;;;;5.07;53.04297;94491.86;;;;
2022/02/15 00:52:36;;;;;;;5.799999;3.65;;;;;;;5.07;53.04297;94491.86;;;;
2022/02/15 00:53:37;;;;;;;5.799999;3.65;;;;;;;5.07;53.04297;94491.86;;;;
2022/02/15 00:54:37;;;;;;;5.799999;3.65;;;;;;;5.07;53.04297;94491.86;;;;
2022/02/15 00:55:37;;;;;;;5.799999;3.65;;;;;;;5.07;53.04297;94491.86;;;;
2022/02/15 00:56:38;;;;;;;5.799999;3.65;;;;;;;5.07;53.04297;94491.86;;;;
2022/02/15 00:57:39;;;;;;;5.799999;3.65;;;;;;;5.07;53.04297;94491.86;;;;
2022/02/15 00:58:39;;;;;;;5.799999;3.65;;;;;;;5.07;53.04297;94491.86;;;;
2022/02/15 00:59:40;;;;;;;5.799999;3.65;;;;;;;5.07;53.04297;94491.86;;;;
2022/02/15 01:00:40;;;;;;;5.799999;3.65;;;;;;;5.07;53.04297;94491.86;;;;
2022/02/15 01:01:41;;;;;;;5.799999;3.65;;;;;;;5.07;53.04297;94491.86;;;;
2022/02/15 01:02:43;;;;;;;6.500001;4.299999;;;;;;;5.18;53.51367;94493.39;;;;
2022/02/15 01:03:45;;;;;;;6.500001;4.299999;;;;;;;5.18;53.51367;94493.39;;;;
2022/02/15 01:04:46;;;;;;;6.500001;4.299999;;;;;;;5.18;53.51367;94493.39;;;;
2022/02/15 01:05:46;;;;;;;6.500001;4.299999;;;;;;;5.18;53.51367;94493.39;;;;
2022/02/15 01:06:46;;;;;;;6.500001;4.299999;;;;;;;5.18;53.51367;94493.39;;;;
2022/02/15 01:07:47;;;;;;;6.500001;4.299999;;;;;;;5.18;53.51367;94493.39;;;;
2022/02/15 01:08:48;;;;;;;6.500001;4.299999;;;;;;;5.18;53.51367;94493.39;;;;
2022/02/15 01:09:48;;;;;;;6.500001;4.299999;;;;;;;5.18;53.51367;94493.39;;;;
2022/02/15 01:10:49;;;;;;;6.500001;4.299999;;;;;;;5.18;53.51367;94493.39;;;;
2022/02/15 01:11:49;;;;;;;6.500001;4.299999;;;;;;;5.18;53.51367;94493.39;;;;
2022/02/15 01:12:50;;;;;;;6.500001;4.299999;;;;;;;5.18;53.51367;94493.39;;;;
2022/02/15 01:13:50;;;;;;;6.7;4.4;;;;;;;5.26;53.59863;94503.69;;;;
2022/02/15 01:14:51;;;;;;;6.7;4.4;;;;;;;5.26;53.59863;94503.69;;;;
2022/02/15 01:15:51;;;;;;;6.7;4.4;;;;;;;5.26;53.59863;94503.69;;;;
2022/02/15 01:16:52;;;;;;;6.7;4.4;;;;;;;5.26;53.59863;94503.69;;;;
2022/02/15 01:17:53;;;;;;;6.7;4.4;;;;;;;5.26;53.59863;94503.69;;;;
2022/02/15 01:18:53;;;;;;;6.7;4.4;;;;;;;5.26;53.59863;94503.69;;;;
2022/02/15 01:19:54;;;;;;;6.7;4.4;;;;;;;5.26;53.59863;94503.69;;;;
2022/02/15 01:20:54;;;;;;;6.7;4.4;;;;;;;5.26;53.59863;94503.69;;;;
2022/02/15 01:21:55;;;;;;;6.7;4.4;;;;;;;5.26;53.59863;94503.69;;;;
2022/02/15 01:22:56;;;;;;;6.7;4.4;;;;;;;5.26;53.59863;94503.69;;;;
2022/02/15 01:23:57;;;;;;;7.2;4.6;;;;;;;5.22;53.80566;94513.29;;;;
2022/02/15 01:24:57;;;;;;;7.2;4.6;;;;;;;5.22;53.80566;94513.29;;;;
2022/02/15 01:25:58;;;;;;;7.2;4.6;;;;;;;5.22;53.80566;94513.29;;;;
2022/02/15 01:26:58;;;;;;;7.2;4.6;;;;;;;5.22;53.80566;94513.29;;;;
2022/02/15 01:27:59;;;;;;;7.2;4.6;;;;;;;5.22;53.80566;94513.29;;;;
2022/02/15 01:29:00;;;;;;;7.2;4.6;;;;;;;5.22;53.80566;94513.29;;;;
2022/02/15 01:30:00;;;;;;;7.2;4.6;;;;;;;5.22;53.80566;94513.29;;;;
2022/02/15 01:31:01;;;;;;;7.2;4.6;;;;;;;5.22;53.80566;94513.29;;;;
2022/02/15 01:32:02;;;;;;;7.2;4.6;;;;;;;5.22;53.80566;94513.29;;;;
2022/02/15 01:33:03;;;;;;;7.2;4.6;;;;;;;5.22;53.80566;94513.29;;;;
2022/02/15 01:34:03;;;;;;;7.2;4.6;;;;;;;5.22;53.80566;94513.29;;;;
2022/02/15 01:35:04;;;;;;;7.250001;4.900001;;;;;;;5.22;54.30469;94519.98;;;;
2022/02/15 01:36:05;;;;;;;7.250001;4.900001;;;;;;;5.22;54.30469;94519.98;;;;
2022/02/15 01:37:06;;;;;;;7.250001;4.900001;;;;;;;5.22;54.30469;94519.98;;;;
2022/02/15 01:38:06;;;;;;;7.250001;4.900001;;;;;;;5.22;54.30469;94519.98;;;;
2022/02/15 01:39:07;;;;;;;7.250001;4.900001;;;;;;;5.22;54.30469;94519.98;;;;
2022/02/15 01:40:08;;;;;;;7.250001;4.900001;;;;;;;5.22;54.30469;94519.98;;;;
2022/02/15 01:41:10;;;;;;;7.250001;4.900001;;;;;;;5.22;54.30469;94519.98;;;;
2022/02/15 01:42:11;;;;;;;7.250001;4.900001;;;;;;;5.22;54.30469;94519.98;;;;
2022/02/15 01:43:11;;;;;;;7.250001;4.900001;;;;;;;5.22;54.30469;94519.98;;;;
2022/02/15 01:44:12;;;;;;;7.250001;4.900001;;;;;;;5.22;54.30469;94519.98;;;;
2022/02/15 01:45:12;;;;;;;6.699999;5.199999;;;;;;;5.3;54.69824;94516.52;;;;
2022/02/15 01:46:13;;;;;;;6.699999;5.199999;;;;;;;5.3;54.69824;94516.52;;;;
2022/02/15 01:47:15;;;;;;;6.699999;5.199999;;;;;;;5.3;54.69824;94516.52;;;;
2022/02/15 01:48:24;;;;;;;6.699999;5.199999;;;;;;;5.3;54.69824;94516.52;;;;
2022/02/15 01:49:25;;;;;;;6.699999;5.199999;;;;;;;5.3;54.69824;94516.52;;;;
2022/02/15 01:50:25;;;;;;;6.699999;5.199999;;;;;;;5.3;54.69824;94516.52;;;;
2022/02/15 01:51:27;;;;;;;6.699999;5.199999;;;;;;;5.3;54.69824;94516.52;;;;
2022/02/15 01:52:28;;;;;;;6.699999;5.199999;;;;;;;5.3;54.69824;94516.52;;;;
2022/02/15 01:53:29;;;;;;;6.699999;5.199999;;;;;;;5.3;54.69824;94516.52;;;;
2022/02/15 01:54:29;;;;;;;6.699999;5.199999;;;;;;;5.3;54.69824;94516.52;;;;
2022/02/15 01:55:30;;;;;;;6.699999;5.199999;;;;;;;5.3;54.69824;94516.52;;;;
2022/02/15 01:56:31;;;;;;;6.5;5.000001;;;;;;;5.41;55.07324;94511.86;;;;
2022/02/15 01:57:31;;;;;;;6.5;5.000001;;;;;;;5.41;55.07324;94511.86;;;;
2022/02/15 01:58:32;;;;;;;6.5;5.000001;;;;;;;5.41;55.07324;94511.86;;;;
2022/02/15 01:59:33;;;;;;;6.5;5.000001;;;;;;;5.41;55.07324;94511.86;;;;
2022/02/15 02:00:33;;;;;;;6.5;5.000001;;;;;;;5.41;55.07324;94511.86;;;;
2022/02/15 02:01:34;;;;;;;6.5;5.000001;;;;;;;5.41;55.07324;94511.86;;;;
2022/02/15 02:02:34;;;;;;;6.5;5.000001;;;;;;;5.41;55.07324;94511.86;;;;
2022/02/15 02:03:35;;;;;;;6.5;5.000001;;;;;;;5.41;55.07324;94511.86;;;;
2022/02/15 02:09:47;;;;;;;5.699999;4.65;;;;;;;5.52;55.30176;94506.59;;;;
2022/02/15 02:10:47;;;;;;;5.699999;4.65;;;;;;;5.52;55.30176;94506.59;;;;
2022/02/15 02:11:49;;;;;;;5.699999;4.65;;;;;;;5.52;55.30176;94506.59;;;;
2022/02/15 02:12:50;;;;;;;5.699999;4.65;;;;;;;5.52;55.30176;94506.59;;;;
2022/02/15 02:13:51;;;;;;;5.699999;4.65;;;;;;;5.52;55.30176;94506.59;;;;
2022/02/15 02:14:51;;;;;;;5.699999;4.65;;;;;;;5.52;55.30176;94506.59;;;;
2022/02/15 02:16:02;;;;;;;5.699999;4.65;;;;;;;5.52;55.30176;94506.59;;;;
2022/02/15 02:17:03;;;;;;;6.35;4.65;;;;;;;5.57;55.7334;94518.38;;;;
2022/02/15 02:18:04;;;;;;;6.35;4.65;;;;;;;5.57;55.7334;94518.38;;;;
2022/02/15 02:19:06;;;;;;;6.35;4.65;;;;;;;5.57;55.7334;94518.38;;;;
2022/02/15 02:20:07;;;;;;;6.35;4.65;;;;;;;5.57;55.7334;94518.38;;;;
2022/02/15 02:21:08;;;;;;;6.35;4.65;;;;;;;5.57;55.7334;94518.38;;;;
2022/02/15 02:22:09;;;;;;;6.35;4.65;;;;;;;5.57;55.7334;94518.38;;;;
2022/02/15 02:23:09;;;;;;;6.35;4.65;;;;;;;5.57;55.7334;94518.38;;;;
2022/02/15 02:24:11;;;;;;;6.35;4.65;;;;;;;5.57;55.7334;94518.38;;;;
2022/02/15 02:25:11;;;;;;;6.35;4.65;;;;;;;5.57;55.7334;94518.38;;;;
2022/02/15 02:26:14;;;;;;;6.35;4.65;;;;;;;5.57;55.7334;94518.38;;;;
2022/02/15 02:27:16;;;;;;;6.35;4.65;;;;;;;5.57;55.7334;94518.38;;;;
2022/02/15 02:28:20;;;;;;;5.35;4.649999;;;;;;;5.6;56.22559;94518.33;;;;
2022/02/15 02:29:21;;;;;;;5.35;4.649999;;;;;;;5.6;56.22559;94518.33;;;;
2022/02/15 02:30:21;;;;;;;5.35;4.649999;;;;;;;5.6;56.22559;94518.33;;;;
2022/02/15 02:31:22;;;;;;;5.35;4.649999;;;;;;;5.6;56.22559;94518.33;;;;
2022/02/15 02:32:22;;;;;;;5.35;4.649999;;;;;;;5.6;56.22559;94518.33;;;;
2022/02/15 02:33:24;;;;;;;5.35;4.649999;;;;;;;5.6;56.22559;94518.33;;;;
2022/02/15 02:34:25;;;;;;;5.35;4.649999;;;;;;;5.6;56.22559;94518.33;;;;
2022/02/15 02:35:26;;;;;;;5.35;4.649999;;;;;;;5.6;56.22559;94518.33;;;;
2022/02/15 02:36:26;;;;;;;5.35;4.649999;;;;;;;5.6;56.22559;94518.33;;;;
2022/02/15 02:37:27;;;;;;;5.35;4.649999;;;;;;;5.6;56.22559;94518.33;;;;
2022/02/15 02:38:28;;;;;;;7;4.6;;;;;;;5.63;56.98438;94517.49;;;;
2022/02/15 02:39:29;;;;;;;7;4.6;;;;;;;5.63;56.98438;94517.49;;;;
2022/02/15 02:40:29;;;;;;;7;4.6;;;;;;;5.63;56.98438;94517.49;;;;
2022/02/15 02:41:31;;;;;;;7;4.6;;;;;;;5.63;56.98438;94517.49;;;;
2022/02/15 02:42:31;;;;;;;7;4.6;;;;;;;5.63;56.98438;94517.49;;;;
2022/02/15 02:43:33;;;;;;;7;4.6;;;;;;;5.63;56.98438;94517.49;;;;
2022/02/15 02:44:33;;;;;;;7;4.6;;;;;;;5.63;56.98438;94517.49;;;;
2022/02/15 02:45:34;;;;;;;7;4.6;;;;;;;5.63;56.98438;94517.49;;;;
2022/02/15 02:46:34;;;;;;;7;4.6;;;;;;;5.63;56.98438;94517.49;;;;
2022/02/15 02:47:35;;;;;;;7;4.6;;;;;;;5.63;56.98438;94517.49;;;;
2022/02/15 02:48:35;;;;;;;7;4.6;;;;;;;5.63;56.98438;94517.49;;;;
2022/02/15 02:49:36;;;;;;;7.2;4.8;;;;;;;5.63;57.36719;94532.59;;;;
2022/02/15 02:50:37;;;;;;;7.2;4.8;;;;;;;5.63;57.36719;94532.59;;;;
2022/02/15 02:51:38;;;;;;;7.2;4.8;;;;;;;5.63;57.36719;94532.59;;;;
2022/02/15 02:52:38;;;;;;;7.2;4.8;;;;;;;5.63;57.36719;94532.59;;;;
2022/02/15 02:53:39;;;;;;;7.2;4.8;;;;;;;5.63;57.36719;94532.59;;;;
2022/02/15 02:54:40;;;;;;;7.2;4.8;;;;;;;5.63;57.36719;94532.59;;;;
2022/02/15 02:55:40;;;;;;;7.2;4.8;;;;;;;5.63;57.36719;94532.59;;;;
2022/02/15 02:56:41;;;;;;;7.2;4.8;;;;;;;5.63;57.36719;94532.59;;;;
2022/02/15 02:57:42;;;;;;;7.2;4.8;;;;;;;5.63;57.36719;94532.59;;;;
2022/02/15 02:58:42;;;;;;;7.2;4.8;;;;;;;5.63;57.36719;94532.59;;;;
2022/02/15 02:59:43;;;;;;;6.099999;4.699999;;;;;;;5.6;57.93652;94540.67;;;;
2022/02/15 03:00:45;;;;;;;6.099999;4.699999;;;;;;;5.6;57.93652;94540.67;;;;
2022/02/15 03:01:45;;;;;;;6.099999;4.699999;;;;;;;5.6;57.93652;94540.67;;;;
2022/02/15 03:02:46;;;;;;;6.099999;4.699999;;;;;;;5.6;57.93652;94540.67;;;;
2022/02/15 03:03:46;;;;;;;6.099999;4.699999;;;;;;;5.6;57.93652;94540.67;;;;
2022/02/15 03:04:47;;;;;;;6.099999;4.699999;;;;;;;5.6;57.93652;94540.67;;;;
2022/02/15 03:05:47;;;;;;;6.099999;4.699999;;;;;;;5.6;57.93652;94540.67;;;;
2022/02/15 03:06:48;;;;;;;6.099999;4.699999;;;;;;;5.6;57.93652;94540.67;;;;
2022/02/15 03:07:48;;;;;;;6.099999;4.699999;;;;;;;5.6;57.93652;94540.67;;;;
2022/02/15 03:08:49;;;;;;;6.099999;4.699999;;;;;;;5.6;57.93652;94540.67;;;;
2022/02/15 03:09:49;;;;;;;6.099999;4.699999;;;;;;;5.6;57.93652;94540.67;;;;
2022/02/15 03:10:50;;;;;;;5.35;4.050001;;;;;;;5.58;58.28418;94554.39;;;;
2022/02/15 03:11:51;;;;;;;5.35;4.050001;;;;;;;5.58;58.28418;94554.39;;;;
2022/02/15 03:12:51;;;;;;;5.35;4.050001;;;;;;;5.58;58.28418;94554.39;;;;
2022/02/15 03:13:52;;;;;;;5.35;4.050001;;;;;;;5.58;58.28418;94554.39;;;;
2022/02/15 03:14:52;;;;;;;5.35;4.050001;;;;;;;5.58;58.28418;94554.39;;;;
2022/02/15 03:15:53;;;;;;;5.35;4.050001;;;;;;;5.58;58.28418;94554.39;;;;
2022/02/15 03:16:53;;;;;;;5.35;4.050001;;;;;;;5.58;58.28418;94554.39;;;;
2022/02/15 03:17:54;;;;;;;5.35;4.050001;;;;;;;5.58;58.28418;94554.39;;;;
2022/02/15 03:18:54;;;;;;;5.35;4.050001;;;;;;;5.58;58.28418;94554.39;;;;
2022/02/15 03:19:55;;;;;;;5.35;4.050001;;;;;;;5.58;58.28418;94554.39;;;;
2022/02/15 03:20:55;;;;;;;5.35;4.050001;;;;;;;5.58;58.28418;94554.39;;;;
2022/02/15 03:21:56;;;;;;;4.95;3.35;;;;;;;5.57;59.35645;94567.49;;;;
2022/02/15 03:22:56;;;;;;;4.95;3.35;;;;;;;5.57;59.35645;94567.49;;;;
2022/02/15 03:23:57;;;;;;;4.95;3.35;;;;;;;5.57;59.35645;94567.49;;;;
2022/02/15 03:24:58;;;;;;;4.95;3.35;;;;;;;5.57;59.35645;94567.49;;;;
2022/02/15 03:25:58;;;;;;;4.95;3.35;;;;;;;5.57;59.35645;94567.49;;;;
2022/02/15 03:26:59;;;;;;;4.95;3.35;;;;;;;5.57;59.35645;94567.49;;;;
2022/02/15 03:27:59;;;;;;;4.95;3.35;;;;;;;5.57;59.35645;94567.49;;;;
2022/02/15 03:29:00;;;;;;;4.95;3.35;;;;;;;5.57;59.35645;94567.49;;;;
2022/02/15 03:30:00;;;;;;;4.95;3.35;;;;;;;5.57;59.35645;94567.49;;;;
2022/02/15 03:31:01;;;;;;;4.95;3.35;;;;;;;5.57;59.35645;94567.49;;;;
2022/02/15 03:32:02;;;;;;;4.600001;3;;;;;;;5.48;60.21582;94575.51;;;;
2022/02/15 03:33:03;;;;;;;4.600001;3;;;;;;;5.48;60.21582;94575.51;;;;
2022/02/15 03:34:04;;;;;;;4.600001;3;;;;;;;5.48;60.21582;94575.51;;;;
2022/02/15 03:35:04;;;;;;;4.600001;3;;;;;;;5.48;60.21582;94575.51;;;;
2022/02/15 03:36:06;;;;;;;4.600001;3;;;;;;;5.48;60.21582;94575.51;;;;
2022/02/15 03:37:06;;;;;;;4.600001;3;;;;;;;5.48;60.21582;94575.51;;;;
2022/02/15 03:38:07;;;;;;;4.600001;3;;;;;;;5.48;60.21582;94575.51;;;;
2022/02/15 03:39:09;;;;;;;4.600001;3;;;;;;;5.48;60.21582;94575.51;;;;
2022/02/15 03:40:10;;;;;;;4.600001;3;;;;;;;5.48;60.21582;94575.51;;;;
2022/02/15 03:46:22;;;;;;;3.8;3.35;;;;;;;5.43;60.79297;94593.98;;;;
2022/02/15 03:47:23;;;;;;;3.8;3.35;;;;;;;5.43;60.79297;94593.98;;;;
2022/02/15 03:48:24;;;;;;;3.8;3.35;;;;;;;5.43;60.79297;94593.98;;;;
2022/02/15 03:49:25;;;;;;;3.8;3.35;;;;;;;5.43;60.79297;94593.98;;;;
2022/02/15 03:50:25;;;;;;;3.8;3.35;;;;;;;5.43;60.79297;94593.98;;;;
2022/02/15 03:51:26;;;;;;;3.8;3.35;;;;;;;5.43;60.79297;94593.98;;;;
2022/02/15 03:52:27;;;;;;;3.8;3.35;;;;;;;5.43;60.79297;94593.98;;;;
2022/02/15 03:53:27;;;;;;;5.349999;3.55;;;;;;;5.28;61.46094;94601.56;;;;
2022/02/15 03:54:27;;;;;;;5.349999;3.55;;;;;;;5.28;61.46094;94601.56;;;;
2022/02/15 03:55:29;;;;;;;5.349999;3.55;;;;;;;5.28;61.46094;94601.56;;;;
2022/02/15 03:56:29;;;;;;;5.349999;3.55;;;;;;;5.28;61.46094;94601.56;;;;
2022/02/15 03:57:34;;;;;;;5.349999;3.55;;;;;;;5.28;61.46094;94601.56;;;;
2022/02/15 03:58:35;;;;;;;5.349999;3.55;;;;;;;5.28;61.46094;94601.56;;;;
2022/02/15 03:59:36;;;;;;;5.349999;3.55;;;;;;;5.28;61.46094;94601.56;;;;
2022/02/15 04:00:37;;;;;;;5.349999;3.55;;;;;;;5.28;61.46094;94601.56;;;;
2022/02/15 04:01:38;;;;;;;5.349999;3.55;;;;;;;5.28;61.46094;94601.56;;;;
2022/02/15 04:02:39;;;;;;;5.349999;3.55;;;;;;;5.28;61.46094;94601.56;;;;
2022/02/15 04:03:39;;;;;;;6.3;3.95;;;;;;;5.17;62.17676;94598.26;;;;
2022/02/15 04:04:39;;;;;;;6.3;3.95;;;;;;;5.17;62.17676;94598.26;;;;
2022/02/15 04:05:40;;;;;;;6.3;3.95;;;;;;;5.17;62.17676;94598.26;;;;
2022/02/15 04:06:40;;;;;;;6.3;3.95;;;;;;;5.17;62.17676;94598.26;;;;
2022/02/15 04:07:41;;;;;;;6.3;3.95;;;;;;;5.17;62.17676;94598.26;;;;
2022/02/15 04:08:42;;;;;;;6.3;3.95;;;;;;;5.17;62.17676;94598.26;;;;
2022/02/15 04:09:42;;;;;;;6.3;3.95;;;;;;;5.17;62.17676;94598.26;;;;
2022/02/15 04:10:43;;;;;;;6.3;3.95;;;;;;;5.17;62.17676;94598.26;;;;
2022/02/15 04:11:43;;;;;;;6.3;3.95;;;;;;;5.17;62.17676;94598.26;;;;
2022/02/15 04:12:44;;;;;;;6.3;3.95;;;;;;;5.17;62.17676;94598.26;;;;
2022/02/15 04:13:44;;;;;;;6.3;3.95;;;;;;;5.17;62.17676;94598.26;;;;
2022/02/15 04:14:45;;;;;;;4.95;3.6;;;;;;;5.03;62.50781;94607.86;;;;
2022/02/15 04:15:45;;;;;;;4.95;3.6;;;;;;;5.03;62.50781;94607.86;;;;
2022/02/15 04:16:46;;;;;;;4.95;3.6;;;;;;;5.03;62.50781;94607.86;;;;
2022/02/15 04:17:46;;;;;;;4.95;3.6;;;;;;;5.03;62.50781;94607.86;;;;
2022/02/15 04:18:48;;;;;;;4.95;3.6;;;;;;;5.03;62.50781;94607.86;;;;
2022/02/15 04:19:48;;;;;;;4.95;3.6;;;;;;;5.03;62.50781;94607.86;;;;
2022/02/15 04:20:49;;;;;;;4.95;3.6;;;;;;;5.03;62.50781;94607.86;;;;
2022/02/15 04:21:49;;;;;;;4.95;3.6;;;;;;;5.03;62.50781;94607.86;;;;
2022/02/15 04:22:50;;;;;;;4.95;3.6;;;;;;;5.03;62.50781;94607.86;;;;
2022/02/15 04:23:50;;;;;;;4.95;3.6;;;;;;;5.03;62.50781;94607.86;;;;
2022/02/15 04:24:52;;;;;;;4.95;3.6;;;;;;;5.03;62.50781;94607.86;;;;
2022/02/15 04:25:52;;;;;;;4.95;3.6;;;;;;;5.03;62.50781;94607.86;;;;
2022/02/15 04:26:53;;;;;;;4.95;3.6;;;;;;;5.03;62.50781;94607.86;;;;
2022/02/15 04:27:53;;;;;;;4.95;3.6;;;;;;;5.03;62.50781;94607.86;;;;
2022/02/15 04:28:54;;;;;;;4.95;3.6;;;;;;;5.03;62.50781;94607.86;;;;
2022/02/15 04:29:54;;;;;;;4.95;3.6;;;;;;;5.03;62.50781;94607.86;;;;
2022/02/15 04:30:55;;;;;;;4.95;3.6;;;;;;;5.03;62.50781;94607.86;;;;
2022/02/15 04:31:56;;;;;;;4.95;3.6;;;;;;;5.03;62.50781;94607.86;;;;
2022/02/15 04:32:56;;;;;;;4.95;3.6;;;;;;;5.03;62.50781;94607.86;;;;
2022/02/15 04:33:57;;;;;;;4.95;3.6;;;;;;;5.03;62.50781;94607.86;;;;
2022/02/15 04:34:57;;;;;;;4.95;3.6;;;;;;;5.03;62.50781;94607.86;;;;
2022/02/15 04:35:58;;;;;;;4.95;3.35;;;;;;;4.67;63.65137;94630.03;;;;
2022/02/15 04:36:59;;;;;;;4.95;3.35;;;;;;;4.67;63.65137;94630.03;;;;
2022/02/15 04:38:00;;;;;;;4.95;3.35;;;;;;;4.67;63.65137;94630.03;;;;
2022/02/15 04:39:00;;;;;;;4.95;3.35;;;;;;;4.67;63.65137;94630.03;;;;
2022/02/15 04:40:01;;;;;;;4.95;3.35;;;;;;;4.67;63.65137;94630.03;;;;
2022/02/15 04:41:01;;;;;;;4.95;3.35;;;;;;;4.67;63.65137;94630.03;;;;
2022/02/15 04:42:02;;;;;;;4.95;3.35;;;;;;;4.67;63.65137;94630.03;;;;
2022/02/15 04:43:04;;;;;;;4.95;3.35;;;;;;;4.67;63.65137;94630.03;;;;
2022/02/15 04:44:04;;;;;;;4.95;3.35;;;;;;;4.67;63.65137;94630.03;;;;
2022/02/15 04:45:05;;;;;;;4.95;3.35;;;;;;;4.67;63.65137;94630.03;;;;
2022/02/15 04:46:07;;;;;;;4.95;3.35;;;;;;;4.67;63.65137;94630.03;;;;
2022/02/15 04:47:08;;;;;;;4.450001;3.55;;;;;;;4.56;63.9209;94631.54;;;;
2022/02/15 04:48:09;;;;;;;4.450001;3.55;;;;;;;4.56;63.9209;94631.54;;;;
2022/02/15 04:49:09;;;;;;;4.450001;3.55;;;;;;;4.56;63.9209;94631.54;;;;
2022/02/15 04:50:10;;;;;;;4.450001;3.55;;;;;;;4.56;63.9209;94631.54;;;;
2022/02/15 04:51:11;;;;;;;4.450001;3.55;;;;;;;4.56;63.9209;94631.54;;;;
2022/02/15 04:52:11;;;;;;;4.450001;3.55;;;;;;;4.56;63.9209;94631.54;;;;
2022/02/15 04:53:12;;;;;;;4.450001;3.55;;;;;;;4.56;63.9209;94631.54;;;;
2022/02/15 04:54:12;;;;;;;4.450001;3.55;;;;;;;4.56;63.9209;94631.54;;;;
2022/02/15 04:55:13;;;;;;;4.450001;3.55;;;;;;;4.56;63.9209;94631.54;;;;
2022/02/15 04:56:13;;;;;;;4.450001;3.55;;;;;;;4.56;63.9209;94631.54;;;;
2022/02/15 04:57:14;;;;;;;5.499999;3.149999;;;;;;;4.49;64.43945;94647.31;;;;
2022/02/15 04:58:14;;;;;;;5.499999;3.149999;;;;;;;4.49;64.43945;94647.31;;;;
2022/02/15 04:59:15;;;;;;;5.499999;3.149999;;;;;;;4.49;64.43945;94647.31;;;;
2022/02/15 05:00:16;;;;;;;5.499999;3.149999;;;;;;;4.49;64.43945;94647.31;;;;
2022/02/15 05:01:16;;;;;;;5.499999;3.149999;;;;;;;4.49;64.43945;94647.31;;;;
2022/02/15 05:02:18;;;;;;;5.499999;3.149999;;;;;;;4.49;64.43945;94647.31;;;;
2022/02/15 05:03:18;;;;;;;5.499999;3.149999;;;;;;;4.49;64.43945;94647.31;;;;
2022/02/15 05:04:53;;;;;;;5.499999;3.149999;;;;;;;4.49;64.43945;94647.31;;;;
2022/02/15 05:05:53;;;;;;;5.499999;3.149999;;;;;;;4.49;64.43945;94647.31;;;;
2022/02/15 05:06:55;;;;;;;5.499999;3.149999;;;;;;;4.49;64.43945;94647.31;;;;
2022/02/15 05:07:55;;;;;;;3.95;2.8;;;;;;;4.52;64.82617;94655.72;;;;
2022/02/15 05:08:56;;;;;;;3.95;2.8;;;;;;;4.52;64.82617;94655.72;;;;
2022/02/15 05:09:56;;;;;;;3.95;2.8;;;;;;;4.52;64.82617;94655.72;;;;
2022/02/15 05:10:57;;;;;;;3.95;2.8;;;;;;;4.52;64.82617;94655.72;;;;
2022/02/15 05:11:58;;;;;;;3.95;2.8;;;;;;;4.52;64.82617;94655.72;;;;
2022/02/15 05:12:59;;;;;;;3.95;2.8;;;;;;;4.52;64.82617;94655.72;;;;
2022/02/15 05:14:00;;;;;;;3.95;2.8;;;;;;;4.52;64.82617;94655.72;;;;
2022/02/15 05:15:00;;;;;;;3.95;2.8;;;;;;;4.52;64.82617;94655.72;;;;
2022/02/15 05:16:01;;;;;;;3.95;2.8;;;;;;;4.52;64.82617;94655.72;;;;
2022/02/15 05:17:01;;;;;;;3.95;2.8;;;;;;;4.52;64.82617;94655.72;;;;
2022/02/15 05:18:02;;;;;;;3.95;2.8;;;;;;;4.52;64.82617;94655.72;;;;
2022/02/15 05:19:04;;;;;;;5.55;2.85;;;;;;;4.49;64.8418;94660.67;;;;
2022/02/15 05:20:04;;;;;;;5.55;2.85;;;;;;;4.49;64.8418;94660.67;;;;
2022/02/15 05:21:06;;;;;;;5.55;2.85;;;;;;;4.49;64.8418;94660.67;;;;
2022/02/15 05:22:06;;;;;;;5.55;2.85;;;;;;;4.49;64.8418;94660.67;;;;
2022/02/15 05:23:07;;;;;;;5.55;2.85;;;;;;;4.49;64.8418;94660.67;;;;
2022/02/15 05:24:07;;;;;;;5.55;2.85;;;;;;;4.49;64.8418;94660.67;;;;
2022/02/15 05:25:10;;;;;;;5.55;2.85;;;;;;;4.49;64.8418;94660.67;;;;
2022/02/15 05:26:11;;;;;;;5.55;2.85;;;;;;;4.49;64.8418;94660.67;;;;
2022/02/15 05:27:11;;;;;;;5.55;2.85;;;;;;;4.49;64.8418;94660.67;;;;
2022/02/15 05:28:12;;;;;;;5.55;2.85;;;;;;;4.49;64.8418;94660.67;;;;
2022/02/15 05:29:12;;;;;;;5.299999;2.9;;;;;;;4.42;65.43457;94658.04;;;;
2022/02/15 05:30:13;;;;;;;5.299999;2.9;;;;;;;4.42;65.43457;94658.04;;;;
2022/02/15 05:31:14;;;;;;;5.299999;2.9;;;;;;;4.42;65.43457;94658.04;;;;
2022/02/15 05:32:14;;;;;;;5.299999;2.9;;;;;;;4.42;65.43457;94658.04;;;;
2022/02/15 05:33:15;;;;;;;5.299999;2.9;;;;;;;4.42;65.43457;94658.04;;;;
2022/02/15 05:34:15;;;;;;;5.299999;2.9;;;;;;;4.42;65.43457;94658.04;;;;
2022/02/15 05:35:16;;;;;;;5.299999;2.9;;;;;;;4.42;65.43457;94658.04;;;;
2022/02/15 05:36:17;;;;;;;5.299999;2.9;;;;;;;4.42;65.43457;94658.04;;;;
2022/02/15 05:37:17;;;;;;;5.299999;2.9;;;;;;;4.42;65.43457;94658.04;;;;
2022/02/15 05:38:17;;;;;;;5.299999;2.9;;;;;;;4.42;65.43457;94658.04;;;;
2022/02/15 05:39:18;;;;;;;5.299999;2.9;;;;;;;4.42;65.43457;94658.04;;;;
2022/02/15 05:40:19;;;;;;;5;2.7;;;;;;;4.34;66.07715;94668.14;;;;
2022/02/15 05:41:19;;;;;;;5;2.7;;;;;;;4.34;66.07715;94668.14;;;;
2022/02/15 05:42:20;;;;;;;5;2.7;;;;;;;4.34;66.07715;94668.14;;;;
2022/02/15 05:43:21;;;;;;;5;2.7;;;;;;;4.34;66.07715;94668.14;;;;
2022/02/15 05:44:21;;;;;;;5;2.7;;;;;;;4.34;66.07715;94668.14;;;;
2022/02/15 05:45:22;;;;;;;5;2.7;;;;;;;4.34;66.07715;94668.14;;;;
2022/02/15 05:46:22;;;;;;;5;2.7;;;;;;;4.34;66.07715;94668.14;;;;
2022/02/15 05:47:23;;;;;;;5;2.7;;;;;;;4.34;66.07715;94668.14;;;;
2022/02/15 05:48:23;;;;;;;5;2.7;;;;;;;4.34;66.07715;94668.14;;;;
2022/02/15 05:49:24;;;;;;;5;2.7;;;;;;;4.34;66.07715;94668.14;;;;
2022/02/15 05:50:57;;;;;;;4.900001;3;;;;;;;4.27;66.78516;94676.2;;;;
2022/02/15 05:51:57;;;;;;;4.900001;3;;;;;;;4.27;66.78516;94676.2;;;;